Time;durP1;ratioP1;P1;durP2;ratioP2;P2;SDS_P1;SDS_P2;PMS_P1;PMS_P2;Temp;Humidity;BMP_temperature;BMP_pressure;BME280_temperature;BME280_humidity;BME280_pressure;Samples;Min_cycle;Max_cycle;Signal;HPM_P1;HPM_P2
2021/06/26 07:00:25;;;;;;;12.88;11.52;;;;;;;22.06;64.40;99055.97;5946553;23;19995;-73
2021/06/26 07:02:50;;;;;;;17.02;11.80;;;;;;;22.98;61.60;99055.56;4961087;28;20043;-74
2021/06/26 07:05:16;;;;;;;13.93;11.95;;;;;;;21.91;64.56;99056.88;4968746;28;20021;-75
2021/06/26 07:07:41;;;;;;;14.80;12.10;;;;;;;22.89;61.03;99050.84;4966715;28;20114;-74
2021/06/26 07:10:07;;;;;;;14.45;11.95;;;;;;;22.63;62.21;99050.69;4967435;28;20380;-73
2021/06/26 07:12:32;;;;;;;13.25;10.90;;;;;;;23.00;60.84;99051.00;4945357;29;20224;-73
2021/06/26 07:14:58;;;;;;;15.32;12.13;;;;;;;24.61;55.86;99035.66;4951206;29;20622;-71
2021/06/26 07:17:23;;;;;;;12.02;10.05;;;;;;;25.41;53.17;99036.03;4945687;29;20019;-72
2021/06/26 07:19:49;;;;;;;16.10;10.82;;;;;;;23.81;56.73;99046.50;4953369;28;20027;-71
2021/06/26 07:22:14;;;;;;;12.90;10.77;;;;;;;24.95;54.40;99046.47;4947184;29;20027;-71
2021/06/26 07:24:39;;;;;;;11.07;9.70;;;;;;;24.75;55.09;99040.81;4953269;29;20361;-72
2021/06/26 07:27:05;;;;;;;13.75;10.15;;;;;;;25.40;52.40;99038.81;4946539;28;20019;-72
2021/06/26 07:29:30;;;;;;;12.70;9.18;;;;;;;26.87;48.82;99038.84;4953330;29;20023;-72
2021/06/26 07:31:56;;;;;;;11.02;7.90;;;;;;;28.67;44.54;99033.41;4945696;28;20048;-72
2021/06/26 07:34:21;;;;;;;8.57;7.72;;;;;;;29.38;43.06;99036.75;4953310;28;20031;-72
2021/06/26 07:36:46;;;;;;;10.30;7.53;;;;;;;29.93;41.99;99036.16;4952509;28;20022;-72
2021/06/26 07:39:12;;;;;;;8.55;7.70;;;;;;;29.76;41.27;99032.41;4942166;29;20046;-72
2021/06/26 07:41:37;;;;;;;11.13;7.20;;;;;;;31.05;38.91;99041.50;4948820;29;20031;-72
2021/06/26 07:44:03;;;;;;;9.80;6.88;;;;;;;31.36;37.13;99034.78;4945667;28;20082;-72
2021/06/26 07:46:28;;;;;;;7.75;6.75;;;;;;;30.75;37.52;99035.47;4952831;28;20031;-72
2021/06/26 07:48:53;;;;;;;7.20;6.50;;;;;;;31.29;37.19;99028.38;4945283;28;20031;-73
2021/06/26 07:51:19;;;;;;;5.97;5.45;;;;;;;31.99;35.92;99025.75;4953010;28;20491;-73
2021/06/26 07:53:44;;;;;;;6.55;5.95;;;;;;;32.87;32.77;99018.28;4944133;28;20024;-73
2021/06/26 07:56:10;;;;;;;7.15;6.45;;;;;;;32.47;33.20;99019.84;4952879;28;20388;-73
2021/06/26 07:58:35;;;;;;;9.70;5.93;;;;;;;30.73;37.29;99025.94;4945199;29;20073;-72
2021/06/26 08:01:00;;;;;;;6.47;5.18;;;;;;;31.74;35.66;99016.69;4950685;28;20070;-72
2021/06/26 08:03:26;;;;;;;5.90;5.40;;;;;;;31.83;35.02;99009.59;4946076;29;20106;-73
2021/06/26 08:05:53;;;;;;;6.45;5.82;;;;;;;31.68;34.47;99022.69;4944363;28;20086;-72
2021/06/26 08:08:19;;;;;;;8.02;4.93;;;;;;;32.70;33.28;99008.53;4946456;29;20019;-73
2021/06/26 08:10:45;;;;;;;8.30;5.65;;;;;;;32.11;33.66;99007.59;4942460;29;20027;-72
2021/06/26 08:13:14;;;;;;;6.20;5.60;;;;;;;31.79;33.71;99009.03;4943801;29;20027;-72
2021/06/26 08:15:41;;;;;;;7.55;5.22;;;;;;;31.29;35.13;99001.59;4948194;28;20024;-72
2021/06/26 08:18:08;;;;;;;6.45;5.40;;;;;;;30.51;35.30;99006.59;4944114;29;20711;-73
2021/06/26 08:20:34;;;;;;;6.40;5.80;;;;;;;31.10;33.87;99007.09;4950998;28;20373;-72
2021/06/26 08:23:00;;;;;;;6.32;5.72;;;;;;;29.20;37.92;99003.75;4949336;29;20019;-72
2021/06/26 08:25:26;;;;;;;7.40;5.40;;;;;;;29.25;38.08;98997.97;4946750;28;20019;-72
2021/06/26 08:27:51;;;;;;;5.70;4.97;;;;;;;29.57;36.71;98995.88;4951694;29;20476;-72
2021/06/26 08:30:18;;;;;;;10.35;5.60;;;;;;;28.57;39.12;99001.38;4946876;28;20023;-72
2021/06/26 08:32:43;;;;;;;8.23;6.65;;;;;;;28.95;40.40;98983.78;4952463;28;20500;-72
2021/06/26 08:35:09;;;;;;;7.20;6.43;;;;;;;28.53;38.29;98996.44;4947392;28;20079;-73
2021/06/26 08:37:35;;;;;;;7.35;5.50;;;;;;;27.54;39.39;98995.22;4941559;29;20020;-72
2021/06/26 08:40:00;;;;;;;6.63;4.97;;;;;;;27.56;41.40;98987.94;4951155;29;20114;-72
2021/06/26 08:42:26;;;;;;;7.35;5.80;;;;;;;28.39;39.98;98987.88;4950645;28;20026;-72
2021/06/26 08:44:59;;;;;;;6.80;5.25;;;;;;;28.73;39.98;98989.34;4952185;28;20515;-72
2021/06/26 08:47:25;;;;;;;10.00;5.80;;;;;;;28.42;38.77;98997.41;4947208;28;20015;-72
2021/06/26 08:49:51;;;;;;;6.35;5.28;;;;;;;29.45;37.48;98984.50;4950270;29;20038;-72
2021/06/26 08:52:17;;;;;;;7.05;5.50;;;;;;;27.18;42.00;98992.00;4951551;28;20019;-72
2021/06/26 08:54:42;;;;;;;5.93;5.40;;;;;;;27.03;41.69;98995.88;4955625;28;20031;-72
2021/06/26 08:57:08;;;;;;;6.80;5.90;;;;;;;28.66;40.41;98983.72;4948933;28;20049;-72
2021/06/26 08:59:34;;;;;;;5.30;4.80;;;;;;;30.54;34.73;98984.03;4949572;28;20060;-72
2021/06/26 09:02:01;;;;;;;7.88;5.03;;;;;;;30.18;34.64;98975.94;4946983;29;20075;-72
2021/06/26 09:04:26;;;;;;;6.65;4.22;;;;;;;32.81;32.00;98978.69;4953543;28;20031;-73
2021/06/26 09:06:56;;;;;;;4.88;4.43;;;;;;;31.51;33.42;98978.84;4949735;28;20032;-72
2021/06/26 09:09:34;;;;;;;5.00;3.40;;;;;;;33.93;29.83;98978.03;4951063;28;20142;-72
2021/06/26 09:12:10;;;;;;;4.47;3.95;;;;;;;32.32;31.71;98978.50;4929082;28;20058;-73
2021/06/26 09:14:37;;;;;;;7.28;6.35;;;;;;;32.18;32.60;98976.44;4946907;29;20425;-73
2021/06/26 09:17:04;;;;;;;6.28;4.15;;;;;;;31.85;32.67;98970.88;4955279;28;20042;-73
2021/06/26 09:19:31;;;;;;;4.50;4.10;;;;;;;32.68;31.42;98959.53;4955361;28;20023;-73
2021/06/26 09:22:07;;;;;;;6.18;3.80;;;;;;;33.20;30.92;98961.97;4946229;29;20034;-72
2021/06/26 09:24:41;;;;;;;5.72;3.83;;;;;;;32.79;29.89;98963.78;4946392;29;20384;-72
2021/06/26 09:27:07;;;;;;;4.38;3.90;;;;;;;31.44;32.85;98973.28;4954942;28;20073;-73
2021/06/26 09:29:33;;;;;;;4.40;4.00;;;;;;;29.43;34.48;98973.09;4955228;28;20488;-72
2021/06/26 09:32:01;;;;;;;4.25;3.85;;;;;;;29.66;35.08;98967.47;4949175;29;20042;-72
2021/06/26 09:34:41;;;;;;;5.70;4.03;;;;;;;29.92;33.98;98963.16;4955158;28;20086;-72
2021/06/26 09:37:13;;;;;;;4.28;3.85;;;;;;;29.88;34.95;98966.28;4945515;29;20019;-72
2021/06/26 09:39:39;;;;;;;4.55;4.10;;;;;;;29.11;34.93;98973.41;4951273;29;20392;-72
2021/06/26 09:42:18;;;;;;;4.05;3.75;;;;;;;30.85;33.69;98965.81;4952643;28;20665;-72
2021/06/26 09:45:11;;;;;;;4.07;3.65;;;;;;;32.02;32.09;98965.63;4954950;28;20106;-72
2021/06/26 09:47:44;;;;;;;7.20;4.00;;;;;;;28.35;37.65;98966.94;4942947;29;20027;-72
2021/06/26 09:50:13;;;;;;;4.22;3.83;;;;;;;28.97;35.92;98965.00;4952766;29;20500;-72
2021/06/26 09:52:39;;;;;;;3.60;3.30;;;;;;;30.74;32.26;98953.53;4954822;28;20082;-72
2021/06/26 09:55:22;;;;;;;5.68;5.07;;;;;;;30.62;33.23;98966.25;4952302;28;20035;-72
2021/06/26 09:57:49;;;;;;;3.70;3.40;;;;;;;30.93;32.14;98956.06;4952553;28;20539;-72
2021/06/26 10:00:17;;;;;;;4.15;3.72;;;;;;;30.26;32.60;98953.78;4946485;28;20093;-72
2021/06/26 10:02:46;;;;;;;4.30;3.50;;;;;;;32.55;30.19;98951.13;4954537;28;20401;-72
2021/06/26 10:05:13;;;;;;;4.28;3.88;;;;;;;32.38;30.12;98951.06;4940709;29;20394;-72
2021/06/26 10:07:39;;;;;;;5.63;3.53;;;;;;;32.09;31.24;98945.22;4950735;28;20111;-73
2021/06/26 10:10:06;;;;;;;6.75;4.50;;;;;;;30.51;33.37;98946.88;4946522;28;20083;-72
2021/06/26 10:12:35;;;;;;;4.10;3.75;;;;;;;32.25;31.16;98939.91;4954379;28;20077;-72
2021/06/26 10:15:00;;;;;;;3.40;3.10;;;;;;;33.02;31.89;98931.75;4954106;28;20123;-72
2021/06/26 10:17:26;;;;;;;6.25;3.90;;;;;;;31.56;31.75;98938.19;4954018;29;20106;-72
2021/06/26 10:19:52;;;;;;;4.10;3.67;;;;;;;29.00;36.87;98932.66;4952409;28;20031;-72
2021/06/26 10:22:17;;;;;;;4.93;4.00;;;;;;;28.75;38.30;98929.53;4946195;28;20030;-72
2021/06/26 10:24:44;;;;;;;4.82;4.10;;;;;;;28.30;37.94;98931.81;4945055;28;20039;-72
2021/06/26 10:27:21;;;;;;;4.88;4.18;;;;;;;28.48;37.14;98924.03;4944731;29;20106;-72
2021/06/26 10:29:47;;;;;;;4.90;4.07;;;;;;;28.27;36.88;98930.25;4953639;28;20472;-72
2021/06/26 10:32:14;;;;;;;4.57;4.10;;;;;;;30.98;34.84;98920.81;4951028;28;20318;-72
2021/06/26 10:34:45;;;;;;;4.43;4.03;;;;;;;31.23;33.23;98916.47;4949322;28;20027;-72
2021/06/26 10:37:19;;;;;;;4.38;3.90;;;;;;;31.52;31.37;98916.22;4942945;29;20015;-72
2021/06/26 10:39:45;;;;;;;4.60;3.83;;;;;;;32.36;31.18;98912.84;4950704;29;20039;-72
2021/06/26 10:42:17;;;;;;;4.40;3.88;;;;;;;29.74;33.45;98927.53;4950335;29;20020;-72
2021/06/26 10:44:53;;;;;;;4.35;3.95;;;;;;;29.16;36.31;98909.78;4951852;29;20105;-72
2021/06/26 10:47:32;;;;;;;3.75;3.45;;;;;;;30.72;34.09;98912.72;4947083;29;20023;-72
2021/06/26 10:50:08;;;;;;;5.47;4.53;;;;;;;29.54;34.52;98915.16;4952173;29;20036;-72
2021/06/26 10:52:33;;;;;;;5.47;3.90;;;;;;;30.63;34.21;98905.56;4950986;28;20443;-72
2021/06/26 10:54:59;;;;;;;4.18;3.88;;;;;;;30.18;34.53;98909.09;4951275;28;20121;-72
2021/06/26 10:57:26;;;;;;;5.00;4.40;;;;;;;31.15;34.36;98908.41;4953361;28;20054;-72
2021/06/26 11:00:06;;;;;;;5.05;4.30;;;;;;;32.14;30.93;98905.34;4945724;28;20061;-73
2021/06/26 11:02:45;;;;;;;8.00;4.32;;;;;;;31.41;32.94;98893.22;4953276;28;20421;-72
2021/06/26 11:05:12;;;;;;;4.20;3.90;;;;;;;31.83;32.40;98897.84;4945133;29;20122;-72
2021/06/26 11:07:39;;;;;;;4.22;3.90;;;;;;;32.93;30.07;98891.50;4950404;28;20035;-72
2021/06/26 11:10:13;;;;;;;4.70;3.40;;;;;;;33.55;30.26;98895.47;4950781;28;20086;-72
2021/06/26 11:12:44;;;;;;;4.60;3.90;;;;;;;32.39;31.69;98899.09;4953383;28;20035;-72
2021/06/26 11:15:11;;;;;;;3.80;3.50;;;;;;;31.61;31.96;98899.19;4952260;28;20053;-72
2021/06/26 11:17:41;;;;;;;4.00;3.60;;;;;;;28.76;36.50;98906.38;4950525;28;20019;-72
2021/06/26 11:20:13;;;;;;;4.63;4.15;;;;;;;29.23;36.60;98896.69;4951196;28;20023;-72
2021/06/26 11:22:42;;;;;;;4.82;3.70;;;;;;;27.06;42.10;98900.72;4945404;28;20151;-72
2021/06/26 11:25:11;;;;;;;6.57;4.25;;;;;;;27.81;39.22;98907.69;4945495;28;20039;-71
2021/06/26 11:27:36;;;;;;;4.50;3.90;;;;;;;26.92;38.95;98906.34;4942163;28;20028;-71
2021/06/26 11:30:07;;;;;;;4.20;3.80;;;;;;;28.35;39.54;98901.16;4949983;29;20389;-71
2021/06/26 11:32:32;;;;;;;4.18;3.88;;;;;;;28.54;37.73;98899.50;4946651;28;20081;-71
2021/06/26 11:35:12;;;;;;;4.70;4.00;;;;;;;30.27;35.62;98908.19;4951177;28;20491;-71
2021/06/26 11:37:48;;;;;;;4.45;4.05;;;;;;;31.88;32.80;98900.06;4948588;29;20117;-71
2021/06/26 11:40:14;;;;;;;3.88;3.47;;;;;;;31.86;31.74;98905.56;4951276;29;20365;-70
2021/06/26 11:42:53;;;;;;;4.28;3.75;;;;;;;29.51;34.60;98905.63;4953243;28;20058;-70
2021/06/26 11:45:19;;;;;;;;;;;;;;;31.87;31.86;98893.84;4951361;29;20054;-71
2021/06/26 11:47:45;;;;;;;4.13;3.58;;;;;;;31.95;30.34;98891.19;4943874;28;19911;-70
2021/06/26 11:50:14;;;;;;;3.45;3.20;;;;;;;31.47;31.13;98894.41;4943180;28;20448;-71
2021/06/26 11:52:39;;;;;;;2.95;2.75;;;;;;;31.69;31.79;98891.22;4948769;28;20098;-71
2021/06/26 11:55:06;;;;;;;3.58;3.28;;;;;;;32.54;31.48;98883.19;4947924;29;20023;-71
2021/06/26 11:57:31;;;;;;;4.20;3.90;;;;;;;31.95;31.23;98885.84;4940071;29;20059;-71
2021/06/26 11:59:56;;;;;;;4.80;4.15;;;;;;;30.48;34.29;98883.00;4950317;28;20058;-71
2021/06/26 12:02:33;;;;;;;3.90;2.95;;;;;;;30.06;35.91;98878.16;4946114;28;20105;-71
2021/06/26 12:05:01;;;;;;;3.92;3.63;;;;;;;29.46;36.28;98870.53;4950883;28;20405;-71
2021/06/26 12:07:37;;;;;;;3.90;3.53;;;;;;;28.60;38.57;98875.78;4945966;28;20422;-71
2021/06/26 12:10:08;;;;;;;4.25;3.85;;;;;;;28.21;38.50;98877.50;4951870;28;20073;-71
2021/06/26 12:12:38;;;;;;;4.13;3.70;;;;;;;27.48;39.73;98875.94;4941466;28;20027;-71
2021/06/26 12:15:09;;;;;;;3.38;3.08;;;;;;;27.45;39.83;98870.88;4946974;29;20054;-71
2021/06/26 12:17:34;;;;;;;4.80;3.50;;;;;;;27.90;39.77;98858.09;4945283;28;20035;-71
2021/06/26 12:20:07;;;;;;;4.28;3.88;;;;;;;27.40;40.25;98861.47;4944590;29;20389;-71
2021/06/26 12:22:33;;;;;;;6.28;4.28;;;;;;;27.14;41.53;98865.53;4940367;28;20410;-71
2021/06/26 12:25:06;;;;;;;5.63;4.68;;;;;;;26.48;43.79;98865.69;4948066;29;20027;-71
2021/06/26 12:27:31;;;;;;;13.75;7.38;;;;;;;26.61;42.92;98853.06;4944845;29;20377;-70
2021/06/26 12:30:05;;;;;;;4.72;4.30;;;;;;;26.39;43.46;98858.41;4953755;29;20031;-70
2021/06/26 12:32:33;;;;;;;6.72;4.10;;;;;;;26.93;42.66;98846.84;4951042;28;20027;-68
2021/06/26 12:34:59;;;;;;;4.50;4.10;;;;;;;25.88;43.61;98854.56;4954560;28;20058;-70
2021/06/26 12:37:28;;;;;;;5.82;4.63;;;;;;;27.41;42.36;98852.53;4949874;29;20073;-70
2021/06/26 12:40:06;;;;;;;5.30;3.50;;;;;;;26.85;39.42;98849.34;4950268;29;20031;-70
2021/06/26 12:42:35;;;;;;;5.00;3.30;;;;;;;27.44;37.77;98847.91;4953663;28;20476;-70
2021/06/26 12:45:00;;;;;;;4.35;3.55;;;;;;;27.67;39.46;98842.28;4948741;28;20023;-71
2021/06/26 12:47:26;;;;;;;6.07;3.30;;;;;;;28.03;38.75;98852.50;4949830;29;20142;-71
2021/06/26 12:50:07;;;;;;;3.92;3.13;;;;;;;28.09;37.30;98842.16;4943160;29;20032;-71
2021/06/26 12:52:33;;;;;;;4.03;2.95;;;;;;;28.40;36.59;98836.75;4951269;28;21573;-71
2021/06/26 12:54:58;;;;;;;3.10;2.90;;;;;;;29.42;35.92;98840.59;4949817;28;20055;-70
2021/06/26 12:57:23;;;;;;;3.70;3.40;;;;;;;28.22;37.71;98846.38;4946087;28;20120;-71
2021/06/26 12:59:49;;;;;;;3.58;3.20;;;;;;;29.00;37.53;98836.63;4951685;28;20035;-70
2021/06/26 13:02:15;;;;;;;5.85;3.67;;;;;;;28.27;38.74;98838.81;4946761;28;20114;-71
2021/06/26 13:04:44;;;;;;;4.45;4.10;;;;;;;27.62;40.78;98846.31;4947441;29;20034;-70
2021/06/26 13:07:24;;;;;;;3.97;3.67;;;;;;;27.59;42.06;98838.59;4953426;28;20025;-71
2021/06/26 13:09:53;;;;;;;4.00;3.70;;;;;;;26.96;42.23;98830.66;4950725;29;20043;-70
2021/06/26 13:12:21;;;;;;;4.45;4.05;;;;;;;26.94;43.85;98831.78;4941398;29;20030;-70
2021/06/26 13:14:51;;;;;;;5.35;4.18;;;;;;;26.82;42.66;98833.63;4952555;29;20038;-70
2021/06/26 13:17:19;;;;;;;3.90;3.50;;;;;;;28.02;41.68;98825.03;4948304;28;20039;-70
2021/06/26 13:19:45;;;;;;;3.63;3.20;;;;;;;27.28;39.43;98830.59;4943613;29;20027;-69
2021/06/26 13:22:11;;;;;;;8.30;3.60;;;;;;;27.88;38.16;98826.25;4950313;28;20114;-70
2021/06/26 13:24:36;;;;;;;3.53;3.15;;;;;;;27.93;38.10;98832.00;4947911;28;20615;-71
2021/06/26 13:27:03;;;;;;;6.90;3.10;;;;;;;27.99;39.40;98832.44;4949290;28;20031;-70
2021/06/26 13:29:28;;;;;;;6.85;2.97;;;;;;;28.19;38.72;98826.19;4955313;28;20034;-71
2021/06/26 13:31:54;;;;;;;3.97;3.58;;;;;;;27.77;41.09;98828.19;4949693;28;20403;-70
2021/06/26 13:34:19;;;;;;;3.55;3.25;;;;;;;28.24;38.63;98828.41;4953118;28;20032;-70
2021/06/26 13:36:45;;;;;;;3.50;3.20;;;;;;;28.21;38.50;98824.22;4947507;28;20025;-70
2021/06/26 13:39:10;;;;;;;3.50;3.20;;;;;;;28.15;37.92;98830.94;4954003;28;20055;-70
2021/06/26 13:41:35;;;;;;;4.38;2.80;;;;;;;27.68;36.82;98827.13;4954894;28;20035;-71
2021/06/26 13:44:01;;;;;;;5.55;2.72;;;;;;;28.00;36.39;98823.50;4953085;28;20049;-70
2021/06/26 13:46:26;;;;;;;2.78;2.58;;;;;;;27.68;36.44;98822.66;4952843;28;20078;-70
2021/06/26 13:48:53;;;;;;;4.18;3.03;;;;;;;27.96;36.69;98819.41;4945987;28;20035;-69
2021/06/26 13:51:19;;;;;;;3.03;2.72;;;;;;;28.18;36.26;98824.47;4948144;29;20035;-70
2021/06/26 13:53:44;;;;;;;3.50;3.00;;;;;;;27.91;37.14;98822.47;4953660;28;20354;-70
2021/06/26 13:56:10;;;;;;;3.42;3.13;;;;;;;27.62;38.64;98819.69;4954621;29;20070;-70
2021/06/26 13:58:35;;;;;;;3.97;3.53;;;;;;;27.78;38.70;98817.38;4954682;29;20047;-71
2021/06/26 14:01:00;;;;;;;3.80;3.50;;;;;;;26.48;43.11;98812.53;4954335;28;20090;-70
2021/06/26 14:03:26;;;;;;;3.85;3.55;;;;;;;26.29;43.16;98826.44;4949094;28;20027;-70
2021/06/26 14:05:51;;;;;;;3.90;3.60;;;;;;;25.94;45.02;98821.34;4951801;29;20027;-70
2021/06/26 14:08:17;;;;;;;4.57;4.13;;;;;;;25.22;45.65;98819.03;4954178;28;20032;-70
2021/06/26 14:10:42;;;;;;;8.52;3.60;;;;;;;25.97;44.73;98814.97;4946676;28;20110;-70
2021/06/26 14:13:09;;;;;;;4.20;3.88;;;;;;;25.82;44.06;98815.22;4946779;28;20692;-70
2021/06/26 14:15:34;;;;;;;4.25;3.95;;;;;;;26.24;44.30;98811.84;4954002;28;20031;-70
2021/06/26 14:18:01;;;;;;;3.50;3.20;;;;;;;26.78;43.02;98814.44;4954207;28;20030;-71
2021/06/26 14:20:27;;;;;;;3.97;3.47;;;;;;;26.98;43.68;98801.25;4954119;28;20030;-70
2021/06/26 14:22:52;;;;;;;3.95;3.63;;;;;;;27.49;40.84;98801.28;4946599;28;20031;-70
2021/06/26 14:25:18;;;;;;;3.80;3.50;;;;;;;27.32;42.74;98802.75;4951298;28;20026;-70
2021/06/26 14:27:44;;;;;;;3.53;3.22;;;;;;;27.32;42.01;98796.56;4950556;29;20019;-70
2021/06/26 14:30:11;;;;;;;3.40;3.20;;;;;;;26.87;41.76;98794.19;4947678;28;20028;-70
2021/06/26 14:32:37;;;;;;;3.70;3.40;;;;;;;26.24;43.66;98799.41;4953843;28;20110;-70
2021/06/26 14:35:04;;;;;;;3.90;3.60;;;;;;;27.70;42.46;98777.25;4951242;28;20138;-70
2021/06/26 14:37:30;;;;;;;3.75;3.45;;;;;;;26.98;42.68;98779.97;4950093;29;20038;-70
2021/06/26 14:39:55;;;;;;;4.18;3.83;;;;;;;26.63;41.64;98786.47;4946256;28;20020;-70
2021/06/26 14:42:22;;;;;;;3.85;3.53;;;;;;;26.58;43.12;98773.56;4952974;28;20027;-70
2021/06/26 14:44:48;;;;;;;3.95;3.65;;;;;;;27.10;41.84;98779.81;4953280;28;20032;-70
2021/06/26 14:47:13;;;;;;;3.50;3.20;;;;;;;27.02;42.48;98774.28;4949981;28;20096;-73
2021/06/26 14:49:39;;;;;;;3.42;3.05;;;;;;;27.05;43.00;98770.50;4948654;28;20460;-71
2021/06/26 14:52:04;;;;;;;3.50;3.20;;;;;;;26.77;42.54;98774.69;4949825;28;20440;-70
2021/06/26 14:54:30;;;;;;;3.85;3.53;;;;;;;26.01;42.73;98776.53;4953607;28;20019;-70
2021/06/26 14:56:55;;;;;;;4.25;3.85;;;;;;;25.68;45.12;98770.34;4953407;28;20069;-70
2021/06/26 14:59:20;;;;;;;4.43;3.30;;;;;;;25.51;43.88;98770.81;4953700;28;20038;-70
2021/06/26 15:01:46;;;;;;;4.00;3.70;;;;;;;25.57;45.29;98775.63;4945843;28;20381;-70
2021/06/26 15:04:11;;;;;;;4.20;3.80;;;;;;;25.46;44.35;98762.38;4952465;28;20392;-70
2021/06/26 15:06:37;;;;;;;3.42;2.95;;;;;;;25.41;44.05;98767.22;4952237;28;20082;-70
2021/06/26 15:09:02;;;;;;;7.05;3.58;;;;;;;24.98;44.63;98759.94;4951108;28;20042;-70
2021/06/26 15:11:28;;;;;;;3.53;3.22;;;;;;;25.22;44.94;98762.50;4942530;29;20114;-70
2021/06/26 15:13:53;;;;;;;5.50;3.92;;;;;;;25.11;46.68;98763.34;4951171;29;20029;-70
2021/06/26 15:16:19;;;;;;;4.13;3.58;;;;;;;25.15;45.80;98754.19;4952414;28;20539;-70
2021/06/26 15:18:44;;;;;;;4.18;3.88;;;;;;;25.20;45.38;98746.72;4953330;28;20422;-70
2021/06/26 15:21:10;;;;;;;5.57;4.00;;;;;;;25.52;44.43;98745.97;4951926;29;20477;-70
2021/06/26 15:23:36;;;;;;;5.07;3.58;;;;;;;25.30;45.04;98742.38;4933465;29;20019;-70
2021/06/26 15:26:01;;;;;;;4.10;3.63;;;;;;;25.35;45.42;98745.50;4945707;28;20030;-70
2021/06/26 15:28:27;;;;;;;5.18;3.30;;;;;;;25.18;45.42;98748.63;4953064;28;20030;-70
2021/06/26 15:30:52;;;;;;;4.20;3.80;;;;;;;25.67;44.70;98750.03;4952929;28;20039;-70
2021/06/26 15:33:17;;;;;;;4.13;3.83;;;;;;;25.49;44.73;98746.22;4953014;28;20038;-69
2021/06/26 15:35:44;;;;;;;7.13;3.95;;;;;;;25.57;45.64;98754.41;4945326;28;20027;-70
2021/06/26 15:38:10;;;;;;;4.25;3.85;;;;;;;25.94;44.70;98749.66;4944053;29;20031;-69
2021/06/26 15:40:36;;;;;;;4.10;3.70;;;;;;;26.00;43.84;98738.53;4952920;28;20024;-69
2021/06/26 15:43:01;;;;;;;4.95;3.63;;;;;;;26.16;43.23;98738.13;4951921;28;20195;-69
2021/06/26 15:45:26;;;;;;;3.70;3.40;;;;;;;26.15;44.60;98744.38;4953480;28;20570;-69
2021/06/26 15:47:52;;;;;;;4.05;3.35;;;;;;;26.31;43.33;98734.19;4944820;28;20397;-69
2021/06/26 15:50:17;;;;;;;5.93;3.00;;;;;;;26.49;43.69;98737.13;4952867;28;20031;-69
2021/06/26 15:52:43;;;;;;;5.57;3.80;;;;;;;25.97;45.35;98743.28;4945773;28;20024;-69
2021/06/26 15:55:10;;;;;;;7.90;3.30;;;;;;;25.46;45.19;98749.13;4953016;28;20071;-69
2021/06/26 15:57:36;;;;;;;3.53;3.22;;;;;;;25.84;45.20;98749.56;4948336;28;20031;-69
2021/06/26 16:00:08;;;;;;;4.88;4.20;;;;;;;25.79;45.33;98745.59;4945813;28;20028;-69
2021/06/26 16:02:34;;;;;;;5.65;3.83;;;;;;;25.47;46.78;98745.50;4948577;28;20101;-69
2021/06/26 16:04:59;;;;;;;8.10;4.10;;;;;;;25.42;46.15;98740.56;4955516;28;20110;-69
2021/06/26 16:07:24;;;;;;;8.70;4.40;;;;;;;25.29;47.53;98735.41;4955911;28;20058;-69
2021/06/26 16:09:51;;;;;;;5.00;4.60;;;;;;;25.28;46.75;98728.38;4948890;28;20054;-69
2021/06/26 16:12:19;;;;;;;6.20;3.83;;;;;;;25.24;46.55;98731.38;4952566;28;20019;-69
2021/06/26 16:14:45;;;;;;;4.53;4.10;;;;;;;25.56;46.77;98731.50;4956033;28;20162;-69
2021/06/26 16:17:10;;;;;;;4.70;3.85;;;;;;;25.51;46.71;98731.03;4955926;28;20101;-69
2021/06/26 16:19:36;;;;;;;5.13;4.05;;;;;;;25.72;45.42;98721.31;4955572;29;20031;-69
2021/06/26 16:22:05;;;;;;;5.85;3.58;;;;;;;26.07;45.32;98720.28;4942653;28;20110;-69
2021/06/26 16:24:31;;;;;;;4.60;3.88;;;;;;;25.84;45.49;98709.75;4948605;28;20020;-69
2021/06/26 16:26:56;;;;;;;4.65;4.25;;;;;;;25.71;45.27;98711.66;4955557;28;20031;-69
2021/06/26 16:29:21;;;;;;;4.20;3.80;;;;;;;25.58;47.22;98713.66;4956356;28;20392;-69
2021/06/26 16:31:47;;;;;;;5.10;4.10;;;;;;;26.07;44.44;98709.66;4955628;28;20154;-69
2021/06/26 16:34:12;;;;;;;4.32;3.95;;;;;;;26.66;43.63;98706.47;4952540;29;20515;-69
2021/06/26 16:36:37;;;;;;;3.70;3.40;;;;;;;27.14;43.12;98712.06;4948089;28;20015;-69
2021/06/26 16:39:06;;;;;;;4.32;3.97;;;;;;;27.29;42.69;98707.22;4948452;28;20488;-69
2021/06/26 16:41:35;;;;;;;3.90;3.60;;;;;;;27.01;42.77;98710.56;4955535;28;20507;-72
2021/06/26 16:44:01;;;;;;;4.38;3.70;;;;;;;26.10;44.72;98706.75;4953089;28;20074;-72
2021/06/26 16:46:29;;;;;;;3.47;3.20;;;;;;;25.94;43.94;98698.38;4952214;29;20114;-71
2021/06/26 16:48:54;;;;;;;3.78;3.42;;;;;;;26.31;43.70;98691.69;4948502;28;20050;-71
2021/06/26 16:51:20;;;;;;;4.88;4.18;;;;;;;26.56;43.26;98697.59;4954967;28;20497;-72
2021/06/26 16:53:45;;;;;;;4.80;3.83;;;;;;;26.38;41.32;98708.78;4955546;28;20074;-71
2021/06/26 16:56:10;;;;;;;4.32;3.35;;;;;;;26.21;41.48;98705.88;4952063;28;20122;-72
2021/06/26 16:58:37;;;;;;;2.97;2.78;;;;;;;26.24;40.77;98711.75;4950981;29;20030;-72
2021/06/26 17:01:11;;;;;;;3.70;3.30;;;;;;;26.18;41.75;98698.16;4945453;28;20046;-71
2021/06/26 17:03:38;;;;;;;4.82;4.03;;;;;;;26.31;42.08;98696.16;4952707;29;20060;-72
2021/06/26 17:06:04;;;;;;;3.47;3.20;;;;;;;26.09;43.37;98697.09;4953001;28;20034;-69
2021/06/26 17:08:29;;;;;;;4.18;3.75;;;;;;;25.74;44.10;98703.47;4953035;28;20023;-69
2021/06/26 17:10:55;;;;;;;4.15;3.85;;;;;;;25.56;44.34;98705.78;4955329;28;20041;-69
2021/06/26 17:13:22;;;;;;;4.13;3.72;;;;;;;25.42;45.04;98698.09;4954451;28;20023;-69
2021/06/26 17:15:49;;;;;;;5.00;3.60;;;;;;;25.18;45.58;98695.59;4954709;28;20501;-70
2021/06/26 17:18:14;;;;;;;4.25;3.85;;;;;;;25.58;45.68;98692.44;4954637;28;20448;-69
2021/06/26 17:20:41;;;;;;;7.97;6.72;;;;;;;25.66;45.33;98697.94;4955220;28;20020;-69
2021/06/26 17:23:07;;;;;;;9.90;4.07;;;;;;;25.57;45.19;98701.31;4944981;28;20445;-69
2021/06/26 17:25:34;;;;;;;8.63;4.05;;;;;;;25.48;45.64;98707.38;4949021;29;20031;-69
2021/06/26 17:28:00;;;;;;;6.00;4.10;;;;;;;25.28;46.71;98698.38;4954009;28;20082;-69
2021/06/26 17:30:25;;;;;;;6.65;3.92;;;;;;;24.88;48.54;98704.13;4954203;28;20039;-69
2021/06/26 17:32:50;;;;;;;4.45;4.05;;;;;;;24.84;47.48;98708.81;4953929;28;20106;-71
2021/06/26 17:35:16;;;;;;;4.05;3.75;;;;;;;24.40;48.89;98700.78;4946842;29;20024;-71
2021/06/26 17:37:42;;;;;;;6.40;4.25;;;;;;;24.34;49.54;98704.72;4943189;29;20026;-71
2021/06/26 17:40:12;;;;;;;4.97;4.47;;;;;;;24.14;50.33;98697.44;4953549;29;20168;-71
2021/06/26 17:42:38;;;;;;;6.15;4.30;;;;;;;24.22;51.31;98700.34;4950110;29;20019;-71
2021/06/26 17:45:06;;;;;;;4.90;4.53;;;;;;;23.82;52.75;98704.16;4954778;28;20058;-71
2021/06/26 17:47:32;;;;;;;4.85;4.35;;;;;;;23.96;52.29;98710.25;4954379;28;20015;-71
2021/06/26 17:49:57;;;;;;;5.13;4.63;;;;;;;23.85;54.03;98709.22;4954852;28;20118;-71
2021/06/26 17:52:23;;;;;;;5.55;4.72;;;;;;;23.81;53.62;98699.81;4953519;28;20464;-71
2021/06/26 17:54:48;;;;;;;5.70;5.10;;;;;;;23.67;54.94;98699.16;4953827;28;20027;-71
2021/06/26 17:57:14;;;;;;;6.22;5.35;;;;;;;23.54;54.80;98699.16;4954157;28;20161;-71
2021/06/26 17:59:39;;;;;;;11.88;9.25;;;;;;;23.46;56.04;98697.06;4947532;28;20098;-71
2021/06/26 18:02:05;;;;;;;8.15;5.30;;;;;;;23.42;56.70;98700.06;4953402;29;20084;-71
2021/06/26 18:04:30;;;;;;;6.38;5.40;;;;;;;22.96;58.39;98708.59;4953905;28;20019;-71
2021/06/26 18:06:55;;;;;;;6.20;5.65;;;;;;;22.70;58.30;98705.94;4950288;28;20027;-70
2021/06/26 18:09:21;;;;;;;10.68;5.95;;;;;;;22.98;58.30;98714.63;4950369;28;20031;-70
2021/06/26 18:11:46;;;;;;;6.10;5.50;;;;;;;22.99;58.13;98708.38;4943852;28;20144;-71
2021/06/26 18:14:13;;;;;;;6.57;5.93;;;;;;;23.09;57.79;98714.72;4953532;28;20286;-71
2021/06/26 18:16:40;;;;;;;6.30;5.70;;;;;;;23.06;58.30;98714.91;4953083;28;20540;-71
2021/06/26 18:19:06;;;;;;;5.88;5.38;;;;;;;22.84;58.96;98716.38;4953006;28;20114;-71
2021/06/26 18:21:31;;;;;;;5.82;5.32;;;;;;;22.91;59.58;98723.91;4948503;28;20106;-71
2021/06/26 18:23:57;;;;;;;10.57;5.82;;;;;;;22.91;58.98;98721.28;4944725;29;20024;-71
2021/06/26 18:26:23;;;;;;;7.22;5.70;;;;;;;22.78;59.34;98727.38;4949899;28;20039;-71
2021/06/26 18:28:49;;;;;;;6.63;5.95;;;;;;;22.73;60.17;98726.84;4946532;28;20031;-71
2021/06/26 18:31:15;;;;;;;6.32;5.45;;;;;;;22.58;60.70;98730.56;4948728;28;20075;-71